sensor_id;sensor_type;location;lat;lon;timestamp;P1;durP1;ratioP1;P2;durP2;ratioP2
62554;SDS011;48610;52.144;8.624;2023-05-24T00:02:17;28.25;;;4.97;;
62554;SDS011;48610;52.144;8.624;2023-05-24T00:05:19;36.83;;;5.43;;
62554;SDS011;48610;52.144;8.624;2023-05-24T00:08:19;33.97;;;5.75;;
62554;SDS011;48610;52.144;8.624;2023-05-24T00:11:20;20.23;;;5.05;;
62554;SDS011;48610;52.144;8.624;2023-05-24T00:14:21;46.13;;;6.35;;
62554;SDS011;48610;52.144;8.624;2023-05-24T00:17:22;24.58;;;5.28;;
62554;SDS011;48610;52.144;8.624;2023-05-24T00:20:23;32.30;;;5.38;;
62554;SDS011;48610;52.144;8.624;2023-05-24T00:23:24;22.40;;;5.00;;
62554;SDS011;48610;52.144;8.624;2023-05-24T00:26:25;32.22;;;5.75;;
62554;SDS011;48610;52.144;8.624;2023-05-24T00:29:25;39.60;;;6.60;;
62554;SDS011;48610;52.144;8.624;2023-05-24T00:32:26;23.10;;;5.60;;
62554;SDS011;48610;52.144;8.624;2023-05-24T00:35:27;31.83;;;5.55;;
62554;SDS011;48610;52.144;8.624;2023-05-24T00:38:27;37.03;;;6.05;;
62554;SDS011;48610;52.144;8.624;2023-05-24T00:41:28;35.60;;;5.32;;
62554;SDS011;48610;52.144;8.624;2023-05-24T00:44:29;32.03;;;5.63;;
62554;SDS011;48610;52.144;8.624;2023-05-24T00:47:30;49.95;;;6.45;;
62554;SDS011;48610;52.144;8.624;2023-05-24T00:50:30;30.70;;;5.80;;
62554;SDS011;48610;52.144;8.624;2023-05-24T00:53:31;43.90;;;7.15;;
62554;SDS011;48610;52.144;8.624;2023-05-24T00:56:34;30.38;;;5.85;;
62554;SDS011;48610;52.144;8.624;2023-05-24T00:59:35;30.08;;;5.63;;
62554;SDS011;48610;52.144;8.624;2023-05-24T01:02:36;32.63;;;5.65;;
62554;SDS011;48610;52.144;8.624;2023-05-24T01:05:36;24.67;;;5.53;;
62554;SDS011;48610;52.144;8.624;2023-05-24T01:11:42;33.28;;;6.05;;
62554;SDS011;48610;52.144;8.624;2023-05-24T01:18:33;25.30;;;5.20;;
62554;SDS011;48610;52.144;8.624;2023-05-24T01:25:12;34.83;;;7.18;;
62554;SDS011;48610;52.144;8.624;2023-05-24T01:28:28;36.08;;;5.68;;
62554;SDS011;48610;52.144;8.624;2023-05-24T01:31:32;34.53;;;6.70;;
62554;SDS011;48610;52.144;8.624;2023-05-24T01:34:33;38.13;;;6.90;;
62554;SDS011;48610;52.144;8.624;2023-05-24T01:37:34;29.02;;;5.35;;
62554;SDS011;48610;52.144;8.624;2023-05-24T01:40:35;29.90;;;6.40;;
62554;SDS011;48610;52.144;8.624;2023-05-24T01:43:37;30.63;;;5.97;;
62554;SDS011;48610;52.144;8.624;2023-05-24T01:46:42;32.22;;;5.65;;
62554;SDS011;48610;52.144;8.624;2023-05-24T01:49:50;19.95;;;5.18;;
62554;SDS011;48610;52.144;8.624;2023-05-24T01:52:53;28.05;;;6.05;;
62554;SDS011;48610;52.144;8.624;2023-05-24T01:55:56;27.75;;;5.38;;
62554;SDS011;48610;52.144;8.624;2023-05-24T01:59:00;38.45;;;6.85;;
62554;SDS011;48610;52.144;8.624;2023-05-24T02:02:02;13.40;;;4.80;;
62554;SDS011;48610;52.144;8.624;2023-05-24T02:05:03;33.33;;;6.75;;
62554;SDS011;48610;52.144;8.624;2023-05-24T02:08:04;27.52;;;5.90;;
62554;SDS011;48610;52.144;8.624;2023-05-24T02:11:05;34.45;;;6.90;;
62554;SDS011;48610;52.144;8.624;2023-05-24T02:14:05;27.23;;;5.78;;
62554;SDS011;48610;52.144;8.624;2023-05-24T02:17:06;25.50;;;5.90;;
62554;SDS011;48610;52.144;8.624;2023-05-24T02:20:07;38.95;;;6.72;;
62554;SDS011;48610;52.144;8.624;2023-05-24T02:23:08;30.00;;;6.15;;
62554;SDS011;48610;52.144;8.624;2023-05-24T02:26:08;22.88;;;6.18;;
62554;SDS011;48610;52.144;8.624;2023-05-24T02:29:12;37.88;;;6.25;;
62554;SDS011;48610;52.144;8.624;2023-05-24T02:32:13;21.58;;;6.07;;
62554;SDS011;48610;52.144;8.624;2023-05-24T02:35:13;29.38;;;5.50;;
62554;SDS011;48610;52.144;8.624;2023-05-24T02:38:14;27.10;;;5.93;;
62554;SDS011;48610;52.144;8.624;2023-05-24T02:41:15;25.73;;;5.68;;
62554;SDS011;48610;52.144;8.624;2023-05-24T02:44:17;40.75;;;7.22;;
62554;SDS011;48610;52.144;8.624;2023-05-24T02:47:17;18.85;;;5.57;;
62554;SDS011;48610;52.144;8.624;2023-05-24T02:50:18;27.58;;;6.07;;
62554;SDS011;48610;52.144;8.624;2023-05-24T02:53:19;27.10;;;7.00;;
62554;SDS011;48610;52.144;8.624;2023-05-24T02:56:20;27.67;;;6.53;;
62554;SDS011;48610;52.144;8.624;2023-05-24T02:59:21;31.13;;;5.95;;
62554;SDS011;48610;52.144;8.624;2023-05-24T03:02:22;26.10;;;5.93;;
62554;SDS011;48610;52.144;8.624;2023-05-24T03:05:23;20.90;;;6.38;;
62554;SDS011;48610;52.144;8.624;2023-05-24T03:08:23;27.92;;;5.88;;
62554;SDS011;48610;52.144;8.624;2023-05-24T03:11:24;30.73;;;6.30;;
62554;SDS011;48610;52.144;8.624;2023-05-24T03:14:25;34.38;;;6.05;;
62554;SDS011;48610;52.144;8.624;2023-05-24T03:17:25;36.13;;;6.10;;
62554;SDS011;48610;52.144;8.624;2023-05-24T03:20:26;31.20;;;6.28;;
62554;SDS011;48610;52.144;8.624;2023-05-24T03:23:27;29.20;;;6.63;;
62554;SDS011;48610;52.144;8.624;2023-05-24T03:26:27;29.67;;;7.13;;
62554;SDS011;48610;52.144;8.624;2023-05-24T03:29:28;24.52;;;6.18;;
62554;SDS011;48610;52.144;8.624;2023-05-24T03:32:28;19.30;;;5.40;;
62554;SDS011;48610;52.144;8.624;2023-05-24T03:35:29;26.77;;;8.30;;
62554;SDS011;48610;52.144;8.624;2023-05-24T03:38:29;32.88;;;6.43;;
62554;SDS011;48610;52.144;8.624;2023-05-24T03:41:32;34.70;;;5.70;;
62554;SDS011;48610;52.144;8.624;2023-05-24T03:44:33;23.48;;;6.25;;
62554;SDS011;48610;52.144;8.624;2023-05-24T03:47:33;29.85;;;7.13;;
62554;SDS011;48610;52.144;8.624;2023-05-24T03:50:34;29.60;;;6.30;;
62554;SDS011;48610;52.144;8.624;2023-05-24T03:53:34;37.92;;;6.95;;
62554;SDS011;48610;52.144;8.624;2023-05-24T03:56:35;37.88;;;7.00;;
62554;SDS011;48610;52.144;8.624;2023-05-24T03:59:36;41.80;;;8.32;;
62554;SDS011;48610;52.144;8.624;2023-05-24T04:02:36;20.80;;;7.30;;
62554;SDS011;48610;52.144;8.624;2023-05-24T04:05:37;30.00;;;6.93;;
62554;SDS011;48610;52.144;8.624;2023-05-24T04:08:38;33.50;;;6.68;;
62554;SDS011;48610;52.144;8.624;2023-05-24T04:11:38;33.65;;;8.25;;
62554;SDS011;48610;52.144;8.624;2023-05-24T04:14:39;36.53;;;7.30;;
62554;SDS011;48610;52.144;8.624;2023-05-24T04:17:40;30.80;;;7.75;;
62554;SDS011;48610;52.144;8.624;2023-05-24T04:20:42;37.50;;;7.22;;
62554;SDS011;48610;52.144;8.624;2023-05-24T04:23:43;38.10;;;8.32;;
62554;SDS011;48610;52.144;8.624;2023-05-24T04:26:43;49.67;;;8.07;;
62554;SDS011;48610;52.144;8.624;2023-05-24T04:29:44;42.97;;;7.68;;
62554;SDS011;48610;52.144;8.624;2023-05-24T04:32:48;43.17;;;6.82;;
62554;SDS011;48610;52.144;8.624;2023-05-24T04:35:49;34.38;;;6.93;;
62554;SDS011;48610;52.144;8.624;2023-05-24T04:38:51;42.22;;;8.25;;
62554;SDS011;48610;52.144;8.624;2023-05-24T04:41:52;32.35;;;7.18;;
62554;SDS011;48610;52.144;8.624;2023-05-24T04:44:54;34.97;;;7.93;;
62554;SDS011;48610;52.144;8.624;2023-05-24T04:47:55;31.85;;;7.07;;
62554;SDS011;48610;52.144;8.624;2023-05-24T04:50:56;41.78;;;8.57;;
62554;SDS011;48610;52.144;8.624;2023-05-24T04:53:57;49.28;;;9.25;;
62554;SDS011;48610;52.144;8.624;2023-05-24T04:56:58;46.33;;;9.65;;
62554;SDS011;48610;52.144;8.624;2023-05-24T04:59:58;41.15;;;7.97;;
62554;SDS011;48610;52.144;8.624;2023-05-24T05:02:59;40.65;;;8.18;;
62554;SDS011;48610;52.144;8.624;2023-05-24T05:06:00;27.52;;;7.00;;
62554;SDS011;48610;52.144;8.624;2023-05-24T05:09:00;39.72;;;8.43;;
62554;SDS011;48610;52.144;8.624;2023-05-24T05:12:01;38.80;;;8.13;;
62554;SDS011;48610;52.144;8.624;2023-05-24T05:15:02;67.65;;;8.27;;
62554;SDS011;48610;52.144;8.624;2023-05-24T05:18:02;45.13;;;7.18;;
62554;SDS011;48610;52.144;8.624;2023-05-24T05:21:03;32.40;;;8.00;;
62554;SDS011;48610;52.144;8.624;2023-05-24T05:24:03;35.28;;;7.65;;
62554;SDS011;48610;52.144;8.624;2023-05-24T05:27:04;49.00;;;8.27;;
62554;SDS011;48610;52.144;8.624;2023-05-24T05:30:05;48.10;;;8.50;;
62554;SDS011;48610;52.144;8.624;2023-05-24T05:33:07;54.50;;;7.97;;
62554;SDS011;48610;52.144;8.624;2023-05-24T05:36:07;38.83;;;7.88;;
62554;SDS011;48610;52.144;8.624;2023-05-24T05:39:08;32.78;;;7.45;;
62554;SDS011;48610;52.144;8.624;2023-05-24T05:42:09;37.55;;;7.65;;
62554;SDS011;48610;52.144;8.624;2023-05-24T05:45:09;48.72;;;8.73;;
62554;SDS011;48610;52.144;8.624;2023-05-24T05:48:10;38.97;;;8.70;;
62554;SDS011;48610;52.144;8.624;2023-05-24T05:51:11;54.15;;;8.82;;
62554;SDS011;48610;52.144;8.624;2023-05-24T05:54:12;61.20;;;9.43;;
62554;SDS011;48610;52.144;8.624;2023-05-24T05:57:17;34.67;;;7.97;;
62554;SDS011;48610;52.144;8.624;2023-05-24T06:03:23;45.60;;;8.30;;
62554;SDS011;48610;52.144;8.624;2023-05-24T06:06:24;39.50;;;6.80;;
62554;SDS011;48610;52.144;8.624;2023-05-24T06:09:24;47.70;;;8.70;;
62554;SDS011;48610;52.144;8.624;2023-05-24T06:12:26;51.58;;;8.63;;
62554;SDS011;48610;52.144;8.624;2023-05-24T06:15:26;42.58;;;7.97;;
62554;SDS011;48610;52.144;8.624;2023-05-24T06:18:27;45.40;;;8.18;;
62554;SDS011;48610;52.144;8.624;2023-05-24T06:21:29;52.47;;;8.63;;
62554;SDS011;48610;52.144;8.624;2023-05-24T06:24:31;50.38;;;7.78;;
62554;SDS011;48610;52.144;8.624;2023-05-24T06:27:33;43.70;;;8.70;;
62554;SDS011;48610;52.144;8.624;2023-05-24T06:30:34;33.90;;;7.15;;
62554;SDS011;48610;52.144;8.624;2023-05-24T06:33:34;33.90;;;7.25;;
62554;SDS011;48610;52.144;8.624;2023-05-24T06:36:35;44.85;;;8.13;;
62554;SDS011;48610;52.144;8.624;2023-05-24T06:39:40;47.47;;;7.55;;
62554;SDS011;48610;52.144;8.624;2023-05-24T06:42:41;46.65;;;8.35;;
62554;SDS011;48610;52.144;8.624;2023-05-24T06:45:41;43.22;;;8.85;;
62554;SDS011;48610;52.144;8.624;2023-05-24T06:48:42;51.67;;;7.85;;
62554;SDS011;48610;52.144;8.624;2023-05-24T06:51:43;35.20;;;6.95;;
62554;SDS011;48610;52.144;8.624;2023-05-24T06:54:45;47.97;;;7.28;;
62554;SDS011;48610;52.144;8.624;2023-05-24T06:57:45;46.60;;;7.68;;
62554;SDS011;48610;52.144;8.624;2023-05-24T07:00:46;36.05;;;7.57;;
62554;SDS011;48610;52.144;8.624;2023-05-24T07:03:47;37.35;;;7.72;;
62554;SDS011;48610;52.144;8.624;2023-05-24T07:06:48;33.88;;;7.38;;
62554;SDS011;48610;52.144;8.624;2023-05-24T07:09:49;34.22;;;6.85;;
62554;SDS011;48610;52.144;8.624;2023-05-24T07:12:50;43.75;;;7.55;;
62554;SDS011;48610;52.144;8.624;2023-05-24T07:15:51;39.33;;;6.75;;
62554;SDS011;48610;52.144;8.624;2023-05-24T07:18:53;44.30;;;6.75;;
62554;SDS011;48610;52.144;8.624;2023-05-24T07:21:54;42.72;;;7.15;;
62554;SDS011;48610;52.144;8.624;2023-05-24T07:24:55;37.70;;;7.88;;
62554;SDS011;48610;52.144;8.624;2023-05-24T07:27:56;34.88;;;7.28;;
62554;SDS011;48610;52.144;8.624;2023-05-24T07:30:57;37.15;;;8.05;;
62554;SDS011;48610;52.144;8.624;2023-05-24T07:33:57;51.67;;;7.93;;
62554;SDS011;48610;52.144;8.624;2023-05-24T07:36:58;30.67;;;7.25;;
62554;SDS011;48610;52.144;8.624;2023-05-24T07:40:00;38.40;;;7.43;;
62554;SDS011;48610;52.144;8.624;2023-05-24T07:43:01;21.00;;;5.28;;
62554;SDS011;48610;52.144;8.624;2023-05-24T07:46:02;32.78;;;7.65;;
62554;SDS011;48610;52.144;8.624;2023-05-24T07:49:02;35.50;;;7.07;;
62554;SDS011;48610;52.144;8.624;2023-05-24T07:52:03;44.00;;;7.13;;
62554;SDS011;48610;52.144;8.624;2023-05-24T07:55:05;44.00;;;7.78;;
62554;SDS011;48610;52.144;8.624;2023-05-24T07:58:05;30.23;;;6.82;;
62554;SDS011;48610;52.144;8.624;2023-05-24T08:01:06;42.40;;;7.53;;
62554;SDS011;48610;52.144;8.624;2023-05-24T08:04:07;37.90;;;6.20;;
62554;SDS011;48610;52.144;8.624;2023-05-24T08:07:09;24.92;;;5.90;;
62554;SDS011;48610;52.144;8.624;2023-05-24T08:10:10;27.45;;;5.47;;
62554;SDS011;48610;52.144;8.624;2023-05-24T08:13:13;27.52;;;5.90;;
62554;SDS011;48610;52.144;8.624;2023-05-24T08:16:14;38.75;;;7.20;;
62554;SDS011;48610;52.144;8.624;2023-05-24T08:19:15;30.02;;;6.10;;
62554;SDS011;48610;52.144;8.624;2023-05-24T08:22:15;18.80;;;5.80;;
62554;SDS011;48610;52.144;8.624;2023-05-24T08:25:16;36.78;;;7.30;;
62554;SDS011;48610;52.144;8.624;2023-05-24T08:28:17;34.83;;;6.88;;
62554;SDS011;48610;52.144;8.624;2023-05-24T08:31:17;50.25;;;6.82;;
62554;SDS011;48610;52.144;8.624;2023-05-24T08:34:18;48.13;;;5.93;;
62554;SDS011;48610;52.144;8.624;2023-05-24T08:37:19;30.85;;;6.15;;
62554;SDS011;48610;52.144;8.624;2023-05-24T08:40:21;31.92;;;6.32;;
62554;SDS011;48610;52.144;8.624;2023-05-24T08:43:23;31.75;;;5.82;;
62554;SDS011;48610;52.144;8.624;2023-05-24T08:46:27;45.60;;;7.75;;
62554;SDS011;48610;52.144;8.624;2023-05-24T08:49:28;37.60;;;6.50;;
62554;SDS011;48610;52.144;8.624;2023-05-24T08:52:30;30.00;;;6.05;;
62554;SDS011;48610;52.144;8.624;2023-05-24T08:55:31;54.42;;;6.93;;
62554;SDS011;48610;52.144;8.624;2023-05-24T08:58:32;31.92;;;6.80;;
62554;SDS011;48610;52.144;8.624;2023-05-24T09:01:33;35.10;;;6.68;;
62554;SDS011;48610;52.144;8.624;2023-05-24T09:04:37;36.40;;;7.70;;
62554;SDS011;48610;52.144;8.624;2023-05-24T09:07:39;35.63;;;6.50;;
62554;SDS011;48610;52.144;8.624;2023-05-24T09:10:41;46.78;;;6.45;;
62554;SDS011;48610;52.144;8.624;2023-05-24T09:13:43;33.00;;;7.47;;
62554;SDS011;48610;52.144;8.624;2023-05-24T09:16:44;30.20;;;6.00;;
62554;SDS011;48610;52.144;8.624;2023-05-24T09:19:45;34.28;;;6.10;;
62554;SDS011;48610;52.144;8.624;2023-05-24T09:22:49;34.42;;;7.40;;
62554;SDS011;48610;52.144;8.624;2023-05-24T09:25:51;49.27;;;7.17;;
62554;SDS011;48610;52.144;8.624;2023-05-24T09:28:53;38.72;;;6.75;;
62554;SDS011;48610;52.144;8.624;2023-05-24T09:31:54;38.17;;;6.15;;
62554;SDS011;48610;52.144;8.624;2023-05-24T09:34:56;34.25;;;6.72;;
62554;SDS011;48610;52.144;8.624;2023-05-24T09:37:58;27.83;;;6.97;;
62554;SDS011;48610;52.144;8.624;2023-05-24T09:41:02;37.70;;;7.00;;
62554;SDS011;48610;52.144;8.624;2023-05-24T09:44:05;40.22;;;7.03;;
62554;SDS011;48610;52.144;8.624;2023-05-24T09:47:06;27.33;;;6.18;;
62554;SDS011;48610;52.144;8.624;2023-05-24T09:50:11;39.17;;;6.93;;
62554;SDS011;48610;52.144;8.624;2023-05-24T09:53:17;39.75;;;7.70;;
62554;SDS011;48610;52.144;8.624;2023-05-24T09:56:18;31.67;;;7.20;;
62554;SDS011;48610;52.144;8.624;2023-05-24T09:59:19;44.30;;;7.22;;
62554;SDS011;48610;52.144;8.624;2023-05-24T10:02:20;37.97;;;7.75;;
62554;SDS011;48610;52.144;8.624;2023-05-24T10:05:21;38.53;;;7.47;;
62554;SDS011;48610;52.144;8.624;2023-05-24T10:08:23;36.75;;;7.15;;
62554;SDS011;48610;52.144;8.624;2023-05-24T10:11:24;46.55;;;8.38;;
62554;SDS011;48610;52.144;8.624;2023-05-24T10:14:25;35.50;;;6.75;;
62554;SDS011;48610;52.144;8.624;2023-05-24T10:17:29;32.15;;;7.18;;
62554;SDS011;48610;52.144;8.624;2023-05-24T10:20:29;41.35;;;6.93;;
62554;SDS011;48610;52.144;8.624;2023-05-24T10:23:30;32.30;;;8.13;;
62554;SDS011;48610;52.144;8.624;2023-05-24T10:26:32;36.67;;;7.50;;
62554;SDS011;48610;52.144;8.624;2023-05-24T10:32:45;32.25;;;8.05;;
62554;SDS011;48610;52.144;8.624;2023-05-24T10:35:47;63.25;;;8.73;;
62554;SDS011;48610;52.144;8.624;2023-05-24T10:38:49;36.85;;;7.25;;
62554;SDS011;48610;52.144;8.624;2023-05-24T10:41:50;32.42;;;6.93;;
62554;SDS011;48610;52.144;8.624;2023-05-24T10:44:51;41.38;;;7.90;;
62554;SDS011;48610;52.144;8.624;2023-05-24T10:47:52;21.88;;;7.53;;
62554;SDS011;48610;52.144;8.624;2023-05-24T10:50:53;38.72;;;8.50;;
62554;SDS011;48610;52.144;8.624;2023-05-24T10:53:55;39.58;;;7.55;;
62554;SDS011;48610;52.144;8.624;2023-05-24T10:56:59;38.47;;;7.78;;
62554;SDS011;48610;52.144;8.624;2023-05-24T11:03:37;48.97;;;8.60;;
62554;SDS011;48610;52.144;8.624;2023-05-24T11:07:14;41.28;;;8.90;;
62554;SDS011;48610;52.144;8.624;2023-05-24T11:10:09;44.03;;;7.78;;
62554;SDS011;48610;52.144;8.624;2023-05-24T11:16:33;38.25;;;8.38;;
62554;SDS011;48610;52.144;8.624;2023-05-24T11:19:44;51.97;;;8.38;;
62554;SDS011;48610;52.144;8.624;2023-05-24T11:22:46;45.17;;;7.70;;
62554;SDS011;48610;52.144;8.624;2023-05-24T11:25:47;45.05;;;7.65;;
62554;SDS011;48610;52.144;8.624;2023-05-24T11:28:48;37.85;;;7.47;;
62554;SDS011;48610;52.144;8.624;2023-05-24T11:31:50;41.90;;;7.88;;
62554;SDS011;48610;52.144;8.624;2023-05-24T11:34:52;35.33;;;7.90;;
62554;SDS011;48610;52.144;8.624;2023-05-24T11:37:52;47.63;;;9.02;;
62554;SDS011;48610;52.144;8.624;2023-05-24T11:40:53;39.28;;;7.68;;
62554;SDS011;48610;52.144;8.624;2023-05-24T11:43:56;42.63;;;8.85;;
62554;SDS011;48610;52.144;8.624;2023-05-24T11:46:58;41.60;;;8.07;;
62554;SDS011;48610;52.144;8.624;2023-05-24T11:49:59;35.78;;;6.90;;
62554;SDS011;48610;52.144;8.624;2023-05-24T11:53:03;47.97;;;8.50;;
62554;SDS011;48610;52.144;8.624;2023-05-24T11:56:04;36.17;;;7.22;;
62554;SDS011;48610;52.144;8.624;2023-05-24T12:02:36;36.35;;;7.15;;
62554;SDS011;48610;52.144;8.624;2023-05-24T12:05:39;29.88;;;7.13;;
62554;SDS011;48610;52.144;8.624;2023-05-24T12:08:39;39.50;;;8.52;;
62554;SDS011;48610;52.144;8.624;2023-05-24T12:11:45;44.63;;;8.43;;
62554;SDS011;48610;52.144;8.624;2023-05-24T12:14:47;30.25;;;7.45;;
62554;SDS011;48610;52.144;8.624;2023-05-24T12:17:48;36.58;;;7.40;;
62554;SDS011;48610;52.144;8.624;2023-05-24T12:20:52;34.50;;;7.22;;
62554;SDS011;48610;52.144;8.624;2023-05-24T12:23:53;42.72;;;7.97;;
62554;SDS011;48610;52.144;8.624;2023-05-24T12:26:56;38.70;;;7.68;;
62554;SDS011;48610;52.144;8.624;2023-05-24T12:30:07;40.55;;;6.90;;
62554;SDS011;48610;52.144;8.624;2023-05-24T12:33:09;28.35;;;6.97;;
62554;SDS011;48610;52.144;8.624;2023-05-24T12:36:10;29.13;;;7.15;;
62554;SDS011;48610;52.144;8.624;2023-05-24T12:42:21;36.08;;;7.90;;
62554;SDS011;48610;52.144;8.624;2023-05-24T12:45:23;30.25;;;8.00;;
62554;SDS011;48610;52.144;8.624;2023-05-24T12:48:27;29.77;;;8.15;;
62554;SDS011;48610;52.144;8.624;2023-05-24T12:51:28;23.25;;;7.15;;
62554;SDS011;48610;52.144;8.624;2023-05-24T12:54:28;32.22;;;7.50;;
62554;SDS011;48610;52.144;8.624;2023-05-24T12:57:29;26.35;;;7.68;;
62554;SDS011;48610;52.144;8.624;2023-05-24T13:00:30;29.88;;;7.25;;
62554;SDS011;48610;52.144;8.624;2023-05-24T13:03:30;25.67;;;7.85;;
62554;SDS011;48610;52.144;8.624;2023-05-24T13:06:31;31.05;;;7.65;;
62554;SDS011;48610;52.144;8.624;2023-05-24T13:09:31;41.97;;;8.13;;
62554;SDS011;48610;52.144;8.624;2023-05-24T13:12:33;25.60;;;6.30;;
62554;SDS011;48610;52.144;8.624;2023-05-24T13:15:34;34.33;;;7.18;;
62554;SDS011;48610;52.144;8.624;2023-05-24T13:18:37;42.97;;;8.75;;
62554;SDS011;48610;52.144;8.624;2023-05-24T13:21:38;36.75;;;8.30;;
62554;SDS011;48610;52.144;8.624;2023-05-24T13:24:39;37.85;;;8.57;;
62554;SDS011;48610;52.144;8.624;2023-05-24T13:27:39;39.17;;;7.60;;
62554;SDS011;48610;52.144;8.624;2023-05-24T13:30:40;27.75;;;6.35;;
62554;SDS011;48610;52.144;8.624;2023-05-24T13:33:41;27.88;;;7.28;;
62554;SDS011;48610;52.144;8.624;2023-05-24T13:36:43;29.95;;;6.65;;
62554;SDS011;48610;52.144;8.624;2023-05-24T13:39:44;31.27;;;7.53;;
62554;SDS011;48610;52.144;8.624;2023-05-24T13:42:45;38.35;;;7.25;;
62554;SDS011;48610;52.144;8.624;2023-05-24T13:45:45;37.80;;;8.23;;
62554;SDS011;48610;52.144;8.624;2023-05-24T13:48:46;29.40;;;6.85;;
62554;SDS011;48610;52.144;8.624;2023-05-24T13:51:47;24.85;;;6.63;;
62554;SDS011;48610;52.144;8.624;2023-05-24T13:54:48;34.35;;;7.05;;
62554;SDS011;48610;52.144;8.624;2023-05-24T13:57:50;24.60;;;6.95;;
62554;SDS011;48610;52.144;8.624;2023-05-24T14:00:51;32.10;;;6.03;;
62554;SDS011;48610;52.144;8.624;2023-05-24T14:03:51;31.65;;;6.85;;
62554;SDS011;48610;52.144;8.624;2023-05-24T14:06:52;29.98;;;6.55;;
62554;SDS011;48610;52.144;8.624;2023-05-24T14:09:53;30.52;;;6.82;;
62554;SDS011;48610;52.144;8.624;2023-05-24T14:12:54;32.40;;;6.90;;
62554;SDS011;48610;52.144;8.624;2023-05-24T14:15:54;30.48;;;7.75;;
62554;SDS011;48610;52.144;8.624;2023-05-24T14:18:55;34.53;;;7.32;;
62554;SDS011;48610;52.144;8.624;2023-05-24T14:21:56;31.45;;;8.63;;
62554;SDS011;48610;52.144;8.624;2023-05-24T14:24:57;28.98;;;7.50;;
62554;SDS011;48610;52.144;8.624;2023-05-24T14:27:58;37.05;;;7.20;;
62554;SDS011;48610;52.144;8.624;2023-05-24T14:30:59;34.63;;;7.85;;
62554;SDS011;48610;52.144;8.624;2023-05-24T14:34:00;25.70;;;6.78;;
62554;SDS011;48610;52.144;8.624;2023-05-24T14:37:00;22.55;;;6.10;;
62554;SDS011;48610;52.144;8.624;2023-05-24T14:40:03;42.55;;;7.82;;
62554;SDS011;48610;52.144;8.624;2023-05-24T14:43:07;23.63;;;6.63;;
62554;SDS011;48610;52.144;8.624;2023-05-24T14:46:09;25.35;;;6.28;;
62554;SDS011;48610;52.144;8.624;2023-05-24T14:49:09;30.02;;;6.43;;
62554;SDS011;48610;52.144;8.624;2023-05-24T14:52:10;41.05;;;7.30;;
62554;SDS011;48610;52.144;8.624;2023-05-24T14:55:11;30.23;;;7.47;;
62554;SDS011;48610;52.144;8.624;2023-05-24T14:58:11;27.80;;;7.60;;
62554;SDS011;48610;52.144;8.624;2023-05-24T15:01:12;18.55;;;6.50;;
62554;SDS011;48610;52.144;8.624;2023-05-24T15:04:13;32.72;;;7.07;;
62554;SDS011;48610;52.144;8.624;2023-05-24T15:07:13;29.50;;;6.60;;
62554;SDS011;48610;52.144;8.624;2023-05-24T15:10:14;32.83;;;6.55;;
62554;SDS011;48610;52.144;8.624;2023-05-24T15:13:15;27.48;;;6.78;;
62554;SDS011;48610;52.144;8.624;2023-05-24T15:16:16;29.35;;;7.18;;
62554;SDS011;48610;52.144;8.624;2023-05-24T15:19:17;36.30;;;7.22;;
62554;SDS011;48610;52.144;8.624;2023-05-24T15:22:17;26.00;;;6.72;;
62554;SDS011;48610;52.144;8.624;2023-05-24T15:25:18;34.83;;;7.22;;
62554;SDS011;48610;52.144;8.624;2023-05-24T15:28:19;30.90;;;6.85;;
62554;SDS011;48610;52.144;8.624;2023-05-24T15:31:20;27.60;;;6.32;;
62554;SDS011;48610;52.144;8.624;2023-05-24T15:34:21;40.03;;;7.05;;
62554;SDS011;48610;52.144;8.624;2023-05-24T15:37:21;40.22;;;6.95;;
62554;SDS011;48610;52.144;8.624;2023-05-24T15:40:22;38.38;;;6.82;;
62554;SDS011;48610;52.144;8.624;2023-05-24T15:43:23;26.92;;;6.35;;
62554;SDS011;48610;52.144;8.624;2023-05-24T15:46:23;26.95;;;6.70;;
62554;SDS011;48610;52.144;8.624;2023-05-24T15:49:24;25.33;;;5.82;;
62554;SDS011;48610;52.144;8.624;2023-05-24T15:52:24;26.58;;;6.65;;
62554;SDS011;48610;52.144;8.624;2023-05-24T15:55:25;36.83;;;6.72;;
62554;SDS011;48610;52.144;8.624;2023-05-24T15:58:25;30.80;;;6.28;;
62554;SDS011;48610;52.144;8.624;2023-05-24T16:01:26;27.40;;;6.57;;
62554;SDS011;48610;52.144;8.624;2023-05-24T16:04:27;31.92;;;6.72;;
62554;SDS011;48610;52.144;8.624;2023-05-24T16:07:27;29.60;;;6.90;;
62554;SDS011;48610;52.144;8.624;2023-05-24T16:10:28;24.55;;;6.30;;
62554;SDS011;48610;52.144;8.624;2023-05-24T16:13:28;34.63;;;7.32;;
62554;SDS011;48610;52.144;8.624;2023-05-24T16:16:29;30.40;;;6.80;;
62554;SDS011;48610;52.144;8.624;2023-05-24T16:19:29;34.00;;;6.75;;
62554;SDS011;48610;52.144;8.624;2023-05-24T16:22:31;21.95;;;6.22;;
62554;SDS011;48610;52.144;8.624;2023-05-24T16:25:32;21.33;;;6.18;;
62554;SDS011;48610;52.144;8.624;2023-05-24T16:28:33;26.75;;;6.28;;
62554;SDS011;48610;52.144;8.624;2023-05-24T16:31:33;21.63;;;5.75;;
62554;SDS011;48610;52.144;8.624;2023-05-24T16:34:35;25.33;;;5.95;;
62554;SDS011;48610;52.144;8.624;2023-05-24T16:37:36;26.00;;;6.43;;
62554;SDS011;48610;52.144;8.624;2023-05-24T16:40:36;21.48;;;6.70;;
62554;SDS011;48610;52.144;8.624;2023-05-24T16:43:37;35.10;;;6.32;;
62554;SDS011;48610;52.144;8.624;2023-05-24T16:46:37;18.27;;;5.70;;
62554;SDS011;48610;52.144;8.624;2023-05-24T16:49:38;25.65;;;6.85;;
62554;SDS011;48610;52.144;8.624;2023-05-24T16:52:42;24.08;;;5.40;;
62554;SDS011;48610;52.144;8.624;2023-05-24T16:55:43;29.55;;;6.28;;
62554;SDS011;48610;52.144;8.624;2023-05-24T16:58:44;27.00;;;6.63;;
62554;SDS011;48610;52.144;8.624;2023-05-24T17:01:44;21.38;;;6.15;;
62554;SDS011;48610;52.144;8.624;2023-05-24T17:04:47;29.25;;;6.45;;
62554;SDS011;48610;52.144;8.624;2023-05-24T17:07:48;31.85;;;6.97;;
62554;SDS011;48610;52.144;8.624;2023-05-24T17:10:48;21.30;;;5.72;;
62554;SDS011;48610;52.144;8.624;2023-05-24T17:13:54;20.25;;;6.57;;
62554;SDS011;48610;52.144;8.624;2023-05-24T17:16:55;20.63;;;5.80;;
62554;SDS011;48610;52.144;8.624;2023-05-24T17:19:56;24.95;;;6.35;;
62554;SDS011;48610;52.144;8.624;2023-05-24T17:22:56;24.67;;;6.15;;
62554;SDS011;48610;52.144;8.624;2023-05-24T17:25:57;28.27;;;6.43;;
62554;SDS011;48610;52.144;8.624;2023-05-24T17:28:58;16.30;;;5.63;;
62554;SDS011;48610;52.144;8.624;2023-05-24T17:31:59;22.67;;;6.20;;
62554;SDS011;48610;52.144;8.624;2023-05-24T17:34:59;25.38;;;6.57;;
62554;SDS011;48610;52.144;8.624;2023-05-24T17:38:00;24.55;;;6.53;;
62554;SDS011;48610;52.144;8.624;2023-05-24T17:41:00;24.88;;;7.07;;
62554;SDS011;48610;52.144;8.624;2023-05-24T17:44:01;22.38;;;6.20;;
62554;SDS011;48610;52.144;8.624;2023-05-24T17:47:03;34.67;;;6.95;;
62554;SDS011;48610;52.144;8.624;2023-05-24T17:50:04;26.73;;;6.05;;
62554;SDS011;48610;52.144;8.624;2023-05-24T17:53:05;23.48;;;6.13;;
62554;SDS011;48610;52.144;8.624;2023-05-24T17:56:06;22.23;;;6.57;;
62554;SDS011;48610;52.144;8.624;2023-05-24T17:59:07;24.73;;;7.45;;
62554;SDS011;48610;52.144;8.624;2023-05-24T18:02:08;19.98;;;6.25;;
62554;SDS011;48610;52.144;8.624;2023-05-24T18:05:09;30.25;;;6.85;;
62554;SDS011;48610;52.144;8.624;2023-05-24T18:08:10;24.08;;;6.47;;
62554;SDS011;48610;52.144;8.624;2023-05-24T18:11:11;25.55;;;6.95;;
62554;SDS011;48610;52.144;8.624;2023-05-24T18:14:12;28.85;;;7.85;;
62554;SDS011;48610;52.144;8.624;2023-05-24T18:17:12;27.88;;;7.88;;
62554;SDS011;48610;52.144;8.624;2023-05-24T18:20:13;24.40;;;6.35;;
62554;SDS011;48610;52.144;8.624;2023-05-24T18:23:14;27.35;;;7.18;;
62554;SDS011;48610;52.144;8.624;2023-05-24T18:26:15;25.58;;;7.00;;